createdAt,value
2023-02-23T00:03:19.744Z,99240.84
2023-02-23T00:08:23.761Z,99220.53
2023-02-23T00:13:25.869Z,99227.13
2023-02-23T00:18:30.348Z,99240.88
2023-02-23T00:23:32.646Z,99272.88
2023-02-23T00:28:34.826Z,99302.00
2023-02-23T00:33:36.993Z,99279.88
2023-02-23T00:38:40.296Z,99306.31
2023-02-23T00:43:47.800Z,99322.63
2023-02-23T00:48:51.243Z,99287.22
2023-02-23T00:53:55.397Z,99301.53
2023-02-23T00:58:57.591Z,99333.44
2023-02-23T01:04:02.490Z,99316.75
2023-02-23T01:09:11.102Z,99320.59
2023-02-23T01:14:14.339Z,99336.09
2023-02-23T01:19:17.089Z,99334.81
2023-02-23T01:24:19.321Z,99291.56
2023-02-23T01:29:21.607Z,99288.91
2023-02-23T01:34:25.903Z,99272.41
2023-02-23T01:39:28.526Z,99327.78
2023-02-23T01:44:31.393Z,99342.66
2023-02-23T01:49:36.759Z,99292.19
2023-02-23T01:54:59.296Z,99343.13
2023-02-23T02:00:01.616Z,99327.66
2023-02-23T02:05:16.911Z,99344.06
2023-02-23T02:10:39.169Z,99336.50
2023-02-23T02:15:54.019Z,99315.84
2023-02-23T02:21:18.652Z,99331.66
2023-02-23T02:27:00.865Z,99325.78
2023-02-23T02:32:15.273Z,99325.25
2023-02-23T02:37:43.465Z,99334.66
2023-02-23T02:43:11.781Z,99400.13
2023-02-23T02:48:26.023Z,99381.50
2023-02-23T02:53:42.462Z,99387.56
2023-02-23T02:58:44.856Z,99361.44
2023-02-23T03:04:06.332Z,99349.66
2023-02-23T03:09:44.639Z,99402.22
2023-02-23T03:15:20.358Z,99369.75
2023-02-23T03:20:47.166Z,99396.91
2023-02-23T03:26:40.617Z,99399.28
2023-02-23T03:32:18.994Z,99398.97
2023-02-23T03:38:12.294Z,99416.56
2023-02-23T03:43:37.877Z,99397.81
2023-02-23T03:48:59.805Z,99381.66
2023-02-23T03:54:28.006Z,99371.63
2023-02-23T03:59:53.455Z,99334.81
2023-02-23T04:05:16.713Z,99422.41
2023-02-23T04:10:37.516Z,99408.97
2023-02-23T04:15:48.723Z,99429.34
2023-02-23T04:20:51.295Z,99415.88
2023-02-23T04:25:53.806Z,99388.97
2023-02-23T04:30:56.206Z,99411.53
2023-02-23T04:35:58.327Z,99328.06
2023-02-23T04:41:00.544Z,99423.91
2023-02-23T04:46:02.724Z,99388.59
2023-02-23T04:51:05.386Z,99412.19
2023-02-23T04:56:07.902Z,99441.69
2023-02-23T05:01:10.305Z,99427.47
2023-02-23T05:06:12.991Z,99418.44
2023-02-23T05:11:15.271Z,99439.56
2023-02-23T05:16:17.699Z,99385.44
2023-02-23T05:21:20.087Z,99414.84
2023-02-23T05:26:22.441Z,99485.63
2023-02-23T05:31:25.198Z,99429.19
2023-02-23T05:36:27.772Z,99470.09
2023-02-23T05:41:30.105Z,99469.06
2023-02-23T05:46:32.414Z,99449.41
2023-02-23T05:51:35.192Z,99467.59
2023-02-23T05:56:37.451Z,99432.44
2023-02-23T06:01:39.612Z,99455.91
2023-02-23T06:06:45.060Z,99429.50
2023-02-23T06:11:47.239Z,99448.72
2023-02-23T06:16:49.469Z,99478.09
2023-02-23T06:21:53.256Z,99486.84
2023-02-23T06:26:55.926Z,99508.84
2023-02-23T06:32:00.676Z,99466.16
2023-02-23T06:37:03.562Z,99509.06
2023-02-23T06:42:05.793Z,99474.19
2023-02-23T06:47:07.980Z,99478.19
2023-02-23T06:52:10.866Z,99510.03
2023-02-23T06:57:13.085Z,99494.09
2023-02-23T07:02:15.231Z,99494.72
2023-02-23T07:07:17.445Z,99446.97
2023-02-23T07:12:19.860Z,99476.41
2023-02-23T07:17:22.247Z,99505.06
2023-02-23T07:22:25.633Z,99507.13
2023-02-23T07:27:27.937Z,99483.25
2023-02-23T07:32:30.449Z,99533.66
2023-02-23T07:37:32.835Z,99501.63
2023-02-23T07:42:35.219Z,99490.50
2023-02-23T07:47:39.898Z,99532.00
2023-02-23T07:52:43.292Z,99528.72
2023-02-23T07:57:45.564Z,99531.75
2023-02-23T08:02:47.816Z,99469.13
2023-02-23T08:07:50.148Z,99489.28
2023-02-23T08:12:52.592Z,99499.34
2023-02-23T08:17:54.845Z,99507.56
2023-02-23T08:22:58.247Z,99487.44
2023-02-23T08:28:04.868Z,99505.34
2023-02-23T08:33:07.573Z,99453.78
2023-02-23T08:38:09.869Z,99496.66
2023-02-23T08:43:13.155Z,99518.53
2023-02-23T08:48:15.355Z,99494.97
2023-02-23T08:53:18.167Z,99459.91
2023-02-23T08:58:20.401Z,99513.09
2023-02-23T09:03:26.198Z,99499.81
2023-02-23T09:08:55.594Z,99529.50
2023-02-23T09:13:57.835Z,99485.81
2023-02-23T09:19:01.581Z,99496.31
2023-02-23T09:24:04.077Z,99516.53
2023-02-23T09:29:07.640Z,99491.03
2023-02-23T09:34:10.512Z,99480.53
2023-02-23T09:39:12.777Z,99494.88
2023-02-23T09:44:22.729Z,99499.75
2023-02-23T09:49:28.967Z,99384.78
2023-02-23T09:54:34.750Z,99473.09
2023-02-23T09:59:37.235Z,99479.47
2023-02-23T10:05:16.158Z,99494.78
2023-02-23T10:10:37.089Z,99495.28
2023-02-23T10:16:04.987Z,99488.00
2023-02-23T10:21:18.008Z,99505.03
2023-02-23T10:26:27.081Z,99476.91
2023-02-23T10:31:58.005Z,99483.53
2023-02-23T10:37:02.785Z,99481.00
2023-02-23T10:42:08.084Z,99449.97
2023-02-23T10:47:17.097Z,99482.03
2023-02-23T10:52:24.209Z,99476.81
2023-02-23T10:57:31.304Z,99432.22
2023-02-23T11:02:36.699Z,99466.84
2023-02-23T11:07:39.791Z,99483.66
2023-02-23T11:12:42.169Z,99468.97
2023-02-23T11:17:44.466Z,99475.22
2023-02-23T11:22:47.112Z,99474.69
2023-02-23T11:27:54.133Z,99443.31
2023-02-23T11:32:58.788Z,99448.28
2023-02-23T11:38:15.953Z,99458.47
2023-02-23T11:43:21.108Z,99444.13
2023-02-23T11:48:35.434Z,99468.41
2023-02-23T11:53:41.068Z,99442.13
2023-02-23T11:58:44.058Z,99458.00
2023-02-23T12:03:58.201Z,99458.69
2023-02-23T12:09:09.896Z,99454.78
2023-02-23T12:14:23.854Z,99453.00
2023-02-23T12:19:33.635Z,99396.53
2023-02-23T12:24:41.700Z,99457.88
2023-02-23T12:29:43.747Z,99451.06
2023-02-23T12:35:21.202Z,99451.97
2023-02-23T12:40:34.848Z,99390.88
2023-02-23T12:46:14.231Z,99466.56
2023-02-23T12:51:42.856Z,99471.53
2023-02-23T12:57:06.500Z,99472.31
2023-02-23T13:02:18.237Z,99468.09
2023-02-23T13:07:20.459Z,99468.88
2023-02-23T13:12:22.688Z,99467.22
2023-02-23T13:17:36.342Z,99469.47
2023-02-23T13:22:41.528Z,99469.69
2023-02-23T13:27:49.647Z,99459.34
2023-02-23T13:32:52.398Z,99437.91
2023-02-23T13:38:19.665Z,99472.56
2023-02-23T13:43:30.410Z,99467.06
2023-02-23T13:48:44.430Z,99464.19
2023-02-23T13:54:07.029Z,99458.78
2023-02-23T13:59:16.054Z,99432.41
2023-02-23T14:04:36.079Z,99461.56
2023-02-23T14:09:43.309Z,99426.69
2023-02-23T14:14:47.136Z,99446.78
2023-02-23T14:20:17.906Z,99460.25
2023-02-23T14:25:35.580Z,99448.75
2023-02-23T14:30:51.401Z,99449.19
2023-02-23T14:35:54.811Z,99425.13
2023-02-23T14:40:57.291Z,99400.66
2023-02-23T14:46:01.750Z,99433.09
2023-02-23T14:51:16.932Z,99403.84
2023-02-23T14:56:21.503Z,99414.13
2023-02-23T15:01:43.046Z,99429.13
2023-02-23T15:06:48.064Z,99435.31
2023-02-23T15:11:54.333Z,99443.22
2023-02-23T15:16:57.061Z,99407.59
2023-02-23T15:22:00.957Z,99434.13
2023-02-23T15:27:03.887Z,99388.72
2023-02-23T15:32:18.991Z,99406.28
2023-02-23T15:37:31.269Z,99426.03
2023-02-23T15:42:39.381Z,99410.34
2023-02-23T15:47:43.039Z,99422.69
2023-02-23T15:52:48.919Z,99390.91
2023-02-23T15:57:59.442Z,99414.41
2023-02-23T16:03:03.238Z,99402.03
2023-02-23T16:08:17.037Z,99353.41
2023-02-23T16:13:22.085Z,99338.00
2023-02-23T16:18:36.340Z,99386.16
2023-02-23T16:23:46.041Z,99318.78
2023-02-23T16:28:48.327Z,99352.22
2023-02-23T16:33:57.359Z,99365.38
2023-02-23T16:39:01.949Z,99331.59
2023-02-23T16:44:06.362Z,99361.50
2023-02-23T16:49:12.679Z,99364.78
2023-02-23T16:54:15.218Z,99389.59
2023-02-23T16:59:18.680Z,99379.00
2023-02-23T17:04:21.398Z,99357.22
2023-02-23T17:09:24.788Z,99349.75
2023-02-23T17:14:32.734Z,99356.69
2023-02-23T17:19:35.063Z,99379.75
2023-02-23T17:24:49.590Z,99372.22
2023-02-23T17:29:53.190Z,99347.53
2023-02-23T17:34:55.548Z,99362.44
2023-02-23T17:39:57.807Z,99299.84
2023-02-23T17:45:04.109Z,99300.75
2023-02-23T17:50:07.391Z,99288.34
2023-02-23T17:55:10.433Z,99348.47
2023-02-23T18:00:15.156Z,99329.91
2023-02-23T18:05:21.409Z,99343.28
2023-02-23T18:10:25.662Z,99296.28
2023-02-23T18:15:28.112Z,99305.09
2023-02-23T18:26:06.639Z,99289.97
2023-02-23T18:31:10.204Z,99312.16
2023-02-23T18:36:31.748Z,99267.34
2023-02-23T18:41:42.122Z,99319.59
2023-02-23T18:46:55.122Z,99298.16
2023-02-23T18:51:59.401Z,99273.31
2023-02-23T18:57:02.861Z,99275.31
2023-02-23T19:02:06.432Z,99259.31
2023-02-23T19:07:08.886Z,99288.69
2023-02-23T19:12:12.114Z,99300.38
2023-02-23T19:17:14.488Z,99296.72
2023-02-23T19:22:22.378Z,99277.44
2023-02-23T19:27:44.584Z,99260.31
2023-02-23T19:32:47.912Z,99244.44
2023-02-23T19:37:52.318Z,99284.13
2023-02-23T19:42:54.612Z,99236.84
2023-02-23T19:47:57.173Z,99211.03
2023-02-23T19:52:59.588Z,99224.13
2023-02-23T19:58:02.065Z,99268.38
2023-02-23T20:03:07.702Z,99237.44
2023-02-23T20:08:10.536Z,99249.63
2023-02-23T20:13:12.852Z,99195.69
2023-02-23T20:18:15.111Z,99217.88
2023-02-23T20:23:17.850Z,99177.28
2023-02-23T20:28:20.095Z,99239.97
2023-02-23T20:33:22.354Z,99142.63
2023-02-23T20:38:24.851Z,99225.41
2023-02-23T20:43:27.116Z,99186.81
2023-02-23T20:48:33.860Z,99190.47
2023-02-23T20:53:36.250Z,99174.16
2023-02-23T20:58:39.749Z,99136.72
2023-02-23T21:03:42.041Z,99207.69
2023-02-23T21:08:46.918Z,99215.97
2023-02-23T21:13:49.347Z,99128.47
2023-02-23T21:18:57.176Z,99179.31
2023-02-23T21:23:59.424Z,99163.78
2023-02-23T21:29:02.415Z,99132.91
2023-02-23T21:34:06.622Z,99178.63
2023-02-23T21:39:12.230Z,99137.66
2023-02-23T21:44:14.403Z,99149.78
2023-02-23T21:49:16.688Z,99173.03
2023-02-23T21:54:18.789Z,99138.88
2023-02-23T21:59:21.040Z,99109.59
2023-02-23T22:04:24.492Z,99102.22
2023-02-23T22:09:26.738Z,99135.63
2023-02-23T22:14:28.867Z,99111.72
2023-02-23T22:19:31.068Z,99110.94
2023-02-23T22:24:33.224Z,99115.56
2023-02-23T22:29:35.451Z,99107.56
2023-02-23T22:34:38.192Z,99056.00
2023-02-23T22:39:43.241Z,99121.97
2023-02-23T22:44:45.587Z,99059.19
2023-02-23T22:49:47.984Z,99052.94
2023-02-23T22:54:51.520Z,99072.97
2023-02-23T23:00:00.800Z,99058.44
2023-02-23T23:05:04.252Z,99068.91
2023-02-23T23:10:09.581Z,99040.50
2023-02-23T23:15:15.232Z,99040.59
2023-02-23T23:20:23.100Z,99069.13
2023-02-23T23:25:26.111Z,98989.66
2023-02-23T23:30:38.404Z,99040.59
2023-02-23T23:35:42.893Z,99038.16
2023-02-23T23:40:47.126Z,98994.50
2023-02-23T23:45:51.965Z,99018.13
2023-02-23T23:50:56.419Z,98976.00
2023-02-23T23:56:04.486Z,99001.94
